sensor_id;sensor_type;location;lat;lon;timestamp;P1;durP1;ratioP1;P2;durP2;ratioP2
15938;SDS011;8068;51.322;9.450;2023-04-24T00:01:39;1.10;;;0.70;;
15938;SDS011;8068;51.322;9.450;2023-04-24T00:04:09;1.30;;;0.80;;
15938;SDS011;8068;51.322;9.450;2023-04-24T00:06:40;2.60;;;0.70;;
15938;SDS011;8068;51.322;9.450;2023-04-24T00:09:10;1.50;;;0.73;;
15938;SDS011;8068;51.322;9.450;2023-04-24T00:11:49;1.10;;;0.83;;
15938;SDS011;8068;51.322;9.450;2023-04-24T00:14:20;1.27;;;1.07;;
15938;SDS011;8068;51.322;9.450;2023-04-24T00:16:50;1.10;;;0.83;;
15938;SDS011;8068;51.322;9.450;2023-04-24T00:19:20;1.17;;;0.73;;
15938;SDS011;8068;51.322;9.450;2023-04-24T00:21:52;1.77;;;0.60;;
15938;SDS011;8068;51.322;9.450;2023-04-24T00:24:24;1.23;;;1.07;;
15938;SDS011;8068;51.322;9.450;2023-04-24T00:26:55;1.20;;;0.80;;
15938;SDS011;8068;51.322;9.450;2023-04-24T00:29:26;2.27;;;0.80;;
15938;SDS011;8068;51.322;9.450;2023-04-24T00:31:58;1.30;;;0.67;;
15938;SDS011;8068;51.322;9.450;2023-04-24T00:34:30;1.40;;;0.70;;
15938;SDS011;8068;51.322;9.450;2023-04-24T00:37:05;1.00;;;0.77;;
15938;SDS011;8068;51.322;9.450;2023-04-24T00:39:37;2.27;;;0.97;;
15938;SDS011;8068;51.322;9.450;2023-04-24T00:42:08;1.00;;;0.70;;
15938;SDS011;8068;51.322;9.450;2023-04-24T00:44:43;1.20;;;0.77;;
15938;SDS011;8068;51.322;9.450;2023-04-24T00:47:14;1.20;;;1.10;;
15938;SDS011;8068;51.322;9.450;2023-04-24T00:49:44;1.43;;;1.10;;
15938;SDS011;8068;51.322;9.450;2023-04-24T00:52:16;2.17;;;1.03;;
15938;SDS011;8068;51.322;9.450;2023-04-24T00:54:48;1.40;;;1.20;;
15938;SDS011;8068;51.322;9.450;2023-04-24T00:57:18;2.33;;;1.10;;
15938;SDS011;8068;51.322;9.450;2023-04-24T00:59:50;2.43;;;0.90;;
15938;SDS011;8068;51.322;9.450;2023-04-24T01:02:23;1.20;;;0.93;;
15938;SDS011;8068;51.322;9.450;2023-04-24T01:04:55;1.27;;;0.73;;
15938;SDS011;8068;51.322;9.450;2023-04-24T01:07:27;1.10;;;0.90;;
15938;SDS011;8068;51.322;9.450;2023-04-24T01:10:07;2.50;;;0.90;;
15938;SDS011;8068;51.322;9.450;2023-04-24T01:12:37;1.10;;;0.80;;
15938;SDS011;8068;51.322;9.450;2023-04-24T01:15:08;1.50;;;0.80;;
15938;SDS011;8068;51.322;9.450;2023-04-24T01:17:42;1.47;;;0.97;;
15938;SDS011;8068;51.322;9.450;2023-04-24T01:20:12;1.97;;;0.90;;
15938;SDS011;8068;51.322;9.450;2023-04-24T01:22:44;1.10;;;1.00;;
15938;SDS011;8068;51.322;9.450;2023-04-24T01:25:15;3.53;;;1.27;;
15938;SDS011;8068;51.322;9.450;2023-04-24T01:27:45;2.23;;;0.80;;
15938;SDS011;8068;51.322;9.450;2023-04-24T01:30:16;1.00;;;0.80;;
15938;SDS011;8068;51.322;9.450;2023-04-24T01:32:47;1.00;;;0.70;;
15938;SDS011;8068;51.322;9.450;2023-04-24T01:35:21;1.80;;;0.80;;
15938;SDS011;8068;51.322;9.450;2023-04-24T01:37:51;1.10;;;0.83;;
15938;SDS011;8068;51.322;9.450;2023-04-24T01:40:22;1.23;;;0.77;;
15938;SDS011;8068;51.322;9.450;2023-04-24T01:42:57;4.17;;;0.80;;
15938;SDS011;8068;51.322;9.450;2023-04-24T01:45:28;1.43;;;0.80;;
15938;SDS011;8068;51.322;9.450;2023-04-24T01:47:58;1.00;;;0.80;;
15938;SDS011;8068;51.322;9.450;2023-04-24T01:50:31;2.70;;;0.90;;
15938;SDS011;8068;51.322;9.450;2023-04-24T01:53:02;2.53;;;1.00;;
15938;SDS011;8068;51.322;9.450;2023-04-24T01:55:33;1.00;;;0.60;;
15938;SDS011;8068;51.322;9.450;2023-04-24T01:58:03;1.10;;;0.90;;
15938;SDS011;8068;51.322;9.450;2023-04-24T02:00:35;2.07;;;0.80;;
15938;SDS011;8068;51.322;9.450;2023-04-24T02:03:05;1.50;;;0.93;;
15938;SDS011;8068;51.322;9.450;2023-04-24T02:05:36;1.70;;;0.90;;
15938;SDS011;8068;51.322;9.450;2023-04-24T02:08:06;2.33;;;0.90;;
15938;SDS011;8068;51.322;9.450;2023-04-24T02:10:37;3.10;;;1.40;;
15938;SDS011;8068;51.322;9.450;2023-04-24T02:13:07;1.73;;;1.43;;
15938;SDS011;8068;51.322;9.450;2023-04-24T02:15:37;1.20;;;1.10;;
15938;SDS011;8068;51.322;9.450;2023-04-24T02:18:13;1.33;;;1.23;;
15938;SDS011;8068;51.322;9.450;2023-04-24T02:20:43;1.50;;;1.20;;
15938;SDS011;8068;51.322;9.450;2023-04-24T02:23:13;5.90;;;1.43;;
15938;SDS011;8068;51.322;9.450;2023-04-24T02:25:44;2.10;;;1.40;;
15938;SDS011;8068;51.322;9.450;2023-04-24T02:28:14;2.77;;;1.83;;
15938;SDS011;8068;51.322;9.450;2023-04-24T02:30:45;1.60;;;1.50;;
15938;SDS011;8068;51.322;9.450;2023-04-24T02:33:16;2.33;;;1.40;;
15938;SDS011;8068;51.322;9.450;2023-04-24T02:35:49;1.20;;;1.10;;
15938;SDS011;8068;51.322;9.450;2023-04-24T02:38:20;1.50;;;1.40;;
15938;SDS011;8068;51.322;9.450;2023-04-24T02:40:51;1.50;;;1.40;;
15938;SDS011;8068;51.322;9.450;2023-04-24T02:43:27;1.57;;;1.30;;
15938;SDS011;8068;51.322;9.450;2023-04-24T02:45:58;2.80;;;1.60;;
15938;SDS011;8068;51.322;9.450;2023-04-24T02:48:31;1.20;;;1.10;;
15938;SDS011;8068;51.322;9.450;2023-04-24T02:51:06;6.80;;;1.40;;
15938;SDS011;8068;51.322;9.450;2023-04-24T02:53:39;1.30;;;1.20;;
15938;SDS011;8068;51.322;9.450;2023-04-24T02:56:10;1.30;;;1.20;;
15938;SDS011;8068;51.322;9.450;2023-04-24T02:58:48;1.83;;;1.00;;
15938;SDS011;8068;51.322;9.450;2023-04-24T03:01:19;1.63;;;1.10;;
15938;SDS011;8068;51.322;9.450;2023-04-24T03:03:50;1.73;;;1.00;;
15938;SDS011;8068;51.322;9.450;2023-04-24T03:06:17;2.33;;;1.50;;
15938;SDS011;8068;51.322;9.450;2023-04-24T03:08:49;1.30;;;1.10;;
15938;SDS011;8068;51.322;9.450;2023-04-24T03:11:19;1.73;;;1.30;;
15938;SDS011;8068;51.322;9.450;2023-04-24T03:13:50;1.60;;;1.10;;
15938;SDS011;8068;51.322;9.450;2023-04-24T03:16:26;1.63;;;0.90;;
15938;SDS011;8068;51.322;9.450;2023-04-24T03:18:56;1.10;;;0.90;;
15938;SDS011;8068;51.322;9.450;2023-04-24T03:21:27;1.27;;;1.17;;
15938;SDS011;8068;51.322;9.450;2023-04-24T03:23:58;3.40;;;1.20;;
15938;SDS011;8068;51.322;9.450;2023-04-24T03:26:29;1.17;;;1.00;;
15938;SDS011;8068;51.322;9.450;2023-04-24T03:29:00;3.03;;;1.10;;
15938;SDS011;8068;51.322;9.450;2023-04-24T03:31:31;2.10;;;1.20;;
15938;SDS011;8068;51.322;9.450;2023-04-24T03:34:04;1.80;;;1.20;;
15938;SDS011;8068;51.322;9.450;2023-04-24T03:36:35;1.10;;;0.90;;
15938;SDS011;8068;51.322;9.450;2023-04-24T03:39:05;2.93;;;1.33;;
15938;SDS011;8068;51.322;9.450;2023-04-24T03:41:41;1.40;;;1.30;;
15938;SDS011;8068;51.322;9.450;2023-04-24T03:44:12;2.20;;;1.33;;
15938;SDS011;8068;51.322;9.450;2023-04-24T03:46:43;1.10;;;0.90;;
15938;SDS011;8068;51.322;9.450;2023-04-24T03:49:13;1.30;;;1.20;;
15938;SDS011;8068;51.322;9.450;2023-04-24T03:51:44;2.13;;;1.40;;
15938;SDS011;8068;51.322;9.450;2023-04-24T03:54:16;1.67;;;1.57;;
15938;SDS011;8068;51.322;9.450;2023-04-24T03:56:47;2.80;;;1.20;;
15938;SDS011;8068;51.322;9.450;2023-04-24T03:59:21;3.17;;;1.63;;
15938;SDS011;8068;51.322;9.450;2023-04-24T04:01:52;2.03;;;1.33;;
15938;SDS011;8068;51.322;9.450;2023-04-24T04:04:22;1.50;;;1.37;;
15938;SDS011;8068;51.322;9.450;2023-04-24T04:06:52;2.50;;;1.20;;
15938;SDS011;8068;51.322;9.450;2023-04-24T04:09:23;1.30;;;1.20;;
15938;SDS011;8068;51.322;9.450;2023-04-24T04:11:53;1.70;;;1.10;;
15938;SDS011;8068;51.322;9.450;2023-04-24T04:14:24;1.97;;;1.20;;
15938;SDS011;8068;51.322;9.450;2023-04-24T04:16:57;1.23;;;1.13;;
15938;SDS011;8068;51.322;9.450;2023-04-24T04:19:28;1.23;;;0.90;;
15938;SDS011;8068;51.322;9.450;2023-04-24T04:21:59;2.43;;;1.10;;
15938;SDS011;8068;51.322;9.450;2023-04-24T04:24:39;1.10;;;1.00;;
15938;SDS011;8068;51.322;9.450;2023-04-24T04:27:09;1.50;;;1.00;;
15938;SDS011;8068;51.322;9.450;2023-04-24T04:29:39;5.53;;;1.23;;
15938;SDS011;8068;51.322;9.450;2023-04-24T04:32:09;1.10;;;1.00;;
15938;SDS011;8068;51.322;9.450;2023-04-24T04:34:40;1.43;;;1.33;;
15938;SDS011;8068;51.322;9.450;2023-04-24T04:37:10;1.47;;;1.33;;
15938;SDS011;8068;51.322;9.450;2023-04-24T04:39:40;6.73;;;1.30;;
15938;SDS011;8068;51.322;9.450;2023-04-24T04:42:13;1.50;;;1.27;;
15938;SDS011;8068;51.322;9.450;2023-04-24T04:44:43;1.40;;;1.17;;
15938;SDS011;8068;51.322;9.450;2023-04-24T04:47:15;1.30;;;1.20;;
15938;SDS011;8068;51.322;9.450;2023-04-24T04:49:47;1.70;;;1.60;;
15938;SDS011;8068;51.322;9.450;2023-04-24T04:52:18;2.03;;;1.30;;
15938;SDS011;8068;51.322;9.450;2023-04-24T04:54:48;1.40;;;1.13;;
15938;SDS011;8068;51.322;9.450;2023-04-24T04:57:18;3.13;;;1.40;;
15938;SDS011;8068;51.322;9.450;2023-04-24T04:59:48;1.70;;;1.60;;
15938;SDS011;8068;51.322;9.450;2023-04-24T05:02:19;3.30;;;1.50;;
15938;SDS011;8068;51.322;9.450;2023-04-24T05:04:51;1.53;;;1.43;;
15938;SDS011;8068;51.322;9.450;2023-04-24T05:07:29;1.73;;;1.10;;
15938;SDS011;8068;51.322;9.450;2023-04-24T05:10:00;2.73;;;1.30;;
15938;SDS011;8068;51.322;9.450;2023-04-24T05:12:30;3.80;;;1.10;;
15938;SDS011;8068;51.322;9.450;2023-04-24T05:15:00;1.90;;;1.00;;
15938;SDS011;8068;51.322;9.450;2023-04-24T05:17:30;1.40;;;1.30;;
15938;SDS011;8068;51.322;9.450;2023-04-24T05:20:01;1.67;;;1.57;;
15938;SDS011;8068;51.322;9.450;2023-04-24T05:22:31;1.27;;;0.97;;
15938;SDS011;8068;51.322;9.450;2023-04-24T05:25:10;2.33;;;1.30;;
15938;SDS011;8068;51.322;9.450;2023-04-24T05:27:41;37.50;;;4.10;;
15938;SDS011;8068;51.322;9.450;2023-04-24T05:30:12;3.13;;;1.17;;
15938;SDS011;8068;51.322;9.450;2023-04-24T05:32:46;1.53;;;1.17;;
15938;SDS011;8068;51.322;9.450;2023-04-24T05:35:16;1.90;;;1.50;;
15938;SDS011;8068;51.322;9.450;2023-04-24T05:37:46;1.37;;;1.27;;
15938;SDS011;8068;51.322;9.450;2023-04-24T05:40:22;7.90;;;1.37;;
15938;SDS011;8068;51.322;9.450;2023-04-24T05:42:53;5.90;;;1.13;;
15938;SDS011;8068;51.322;9.450;2023-04-24T05:45:23;2.40;;;1.23;;
15938;SDS011;8068;51.322;9.450;2023-04-24T05:47:53;2.10;;;0.80;;
15938;SDS011;8068;51.322;9.450;2023-04-24T05:50:24;1.10;;;1.00;;
15938;SDS011;8068;51.322;9.450;2023-04-24T05:52:54;1.30;;;1.10;;
15938;SDS011;8068;51.322;9.450;2023-04-24T05:55:24;2.17;;;1.60;;
15938;SDS011;8068;51.322;9.450;2023-04-24T05:57:58;1.80;;;1.70;;
15938;SDS011;8068;51.322;9.450;2023-04-24T06:00:30;1.40;;;1.30;;
15938;SDS011;8068;51.322;9.450;2023-04-24T06:03:00;2.00;;;1.90;;
15938;SDS011;8068;51.322;9.450;2023-04-24T06:05:30;2.30;;;2.20;;
15938;SDS011;8068;51.322;9.450;2023-04-24T06:08:00;2.80;;;2.60;;
15938;SDS011;8068;51.322;9.450;2023-04-24T06:10:30;2.37;;;2.27;;
15938;SDS011;8068;51.322;9.450;2023-04-24T06:13:00;2.53;;;2.43;;
15938;SDS011;8068;51.322;9.450;2023-04-24T06:15:31;2.27;;;2.17;;
15938;SDS011;8068;51.322;9.450;2023-04-24T06:18:02;2.10;;;2.00;;
15938;SDS011;8068;51.322;9.450;2023-04-24T06:20:32;2.50;;;2.40;;
15938;SDS011;8068;51.322;9.450;2023-04-24T06:23:02;2.57;;;2.47;;
15938;SDS011;8068;51.322;9.450;2023-04-24T06:25:34;2.73;;;2.60;;
15938;SDS011;8068;51.322;9.450;2023-04-24T06:28:05;3.10;;;2.90;;
15938;SDS011;8068;51.322;9.450;2023-04-24T06:30:35;2.80;;;2.70;;
15938;SDS011;8068;51.322;9.450;2023-04-24T06:33:07;2.57;;;2.47;;
15938;SDS011;8068;51.322;9.450;2023-04-24T06:35:46;3.47;;;3.27;;
15938;SDS011;8068;51.322;9.450;2023-04-24T06:38:12;3.40;;;3.20;;
15938;SDS011;8068;51.322;9.450;2023-04-24T06:40:39;3.60;;;2.83;;
15938;SDS011;8068;51.322;9.450;2023-04-24T06:43:09;3.50;;;3.17;;
15938;SDS011;8068;51.322;9.450;2023-04-24T06:45:40;3.07;;;2.97;;
15938;SDS011;8068;51.322;9.450;2023-04-24T06:48:10;3.00;;;2.80;;
15938;SDS011;8068;51.322;9.450;2023-04-24T06:50:45;2.83;;;2.60;;
15938;SDS011;8068;51.322;9.450;2023-04-24T06:53:15;5.90;;;2.90;;
15938;SDS011;8068;51.322;9.450;2023-04-24T06:55:45;2.57;;;2.47;;
15938;SDS011;8068;51.322;9.450;2023-04-24T06:58:15;3.93;;;2.80;;
15938;SDS011;8068;51.322;9.450;2023-04-24T07:00:46;2.60;;;2.40;;
15938;SDS011;8068;51.322;9.450;2023-04-24T07:03:16;2.80;;;2.70;;
15938;SDS011;8068;51.322;9.450;2023-04-24T07:05:46;2.70;;;2.50;;
15938;SDS011;8068;51.322;9.450;2023-04-24T07:08:20;2.93;;;2.83;;
15938;SDS011;8068;51.322;9.450;2023-04-24T07:10:51;3.73;;;2.70;;
15938;SDS011;8068;51.322;9.450;2023-04-24T07:13:22;2.60;;;2.40;;
15938;SDS011;8068;51.322;9.450;2023-04-24T07:15:53;2.20;;;2.10;;
15938;SDS011;8068;51.322;9.450;2023-04-24T07:18:22;3.47;;;2.37;;
15938;SDS011;8068;51.322;9.450;2023-04-24T07:20:53;2.60;;;2.40;;
15938;SDS011;8068;51.322;9.450;2023-04-24T07:23:23;2.20;;;2.10;;
15938;SDS011;8068;51.322;9.450;2023-04-24T07:25:55;2.00;;;1.90;;
15938;SDS011;8068;51.322;9.450;2023-04-24T07:28:25;2.43;;;2.33;;
15938;SDS011;8068;51.322;9.450;2023-04-24T07:30:56;3.20;;;2.40;;
15938;SDS011;8068;51.322;9.450;2023-04-24T07:33:27;2.67;;;2.57;;
15938;SDS011;8068;51.322;9.450;2023-04-24T07:35:58;2.07;;;1.97;;
15938;SDS011;8068;51.322;9.450;2023-04-24T07:38:30;2.60;;;2.50;;
15938;SDS011;8068;51.322;9.450;2023-04-24T07:40:59;2.80;;;2.60;;
15938;SDS011;8068;51.322;9.450;2023-04-24T07:43:33;2.70;;;2.50;;
15938;SDS011;8068;51.322;9.450;2023-04-24T07:46:04;2.43;;;2.13;;
15938;SDS011;8068;51.322;9.450;2023-04-24T07:48:35;2.40;;;2.27;;
15938;SDS011;8068;51.322;9.450;2023-04-24T07:51:05;5.33;;;2.50;;
15938;SDS011;8068;51.322;9.450;2023-04-24T07:53:38;2.17;;;2.07;;
15938;SDS011;8068;51.322;9.450;2023-04-24T07:56:09;3.07;;;2.27;;
15938;SDS011;8068;51.322;9.450;2023-04-24T07:58:40;2.10;;;2.00;;
15938;SDS011;8068;51.322;9.450;2023-04-24T08:01:14;2.53;;;2.43;;
15938;SDS011;8068;51.322;9.450;2023-04-24T08:03:44;2.43;;;2.33;;
15938;SDS011;8068;51.322;9.450;2023-04-24T08:06:16;2.70;;;2.60;;
15938;SDS011;8068;51.322;9.450;2023-04-24T08:08:49;1.90;;;1.80;;
15938;SDS011;8068;51.322;9.450;2023-04-24T08:11:21;3.47;;;2.80;;
15938;SDS011;8068;51.322;9.450;2023-04-24T08:13:51;2.83;;;2.70;;
15938;SDS011;8068;51.322;9.450;2023-04-24T08:16:22;2.40;;;2.30;;
15938;SDS011;8068;51.322;9.450;2023-04-24T08:18:52;2.43;;;2.23;;
15938;SDS011;8068;51.322;9.450;2023-04-24T08:21:22;2.60;;;2.50;;
15938;SDS011;8068;51.322;9.450;2023-04-24T08:23:53;2.67;;;2.47;;
15938;SDS011;8068;51.322;9.450;2023-04-24T08:26:27;2.87;;;2.70;;
15938;SDS011;8068;51.322;9.450;2023-04-24T08:28:57;2.67;;;2.57;;
15938;SDS011;8068;51.322;9.450;2023-04-24T08:31:28;3.00;;;2.70;;
15938;SDS011;8068;51.322;9.450;2023-04-24T08:33:58;2.60;;;2.50;;
15938;SDS011;8068;51.322;9.450;2023-04-24T08:36:28;2.80;;;2.57;;
15938;SDS011;8068;51.322;9.450;2023-04-24T08:39:11;4.70;;;2.90;;
15938;SDS011;8068;51.322;9.450;2023-04-24T08:41:37;3.07;;;2.87;;
15938;SDS011;8068;51.322;9.450;2023-04-24T08:44:09;3.10;;;3.00;;
15938;SDS011;8068;51.322;9.450;2023-04-24T08:46:36;2.33;;;2.23;;
15938;SDS011;8068;51.322;9.450;2023-04-24T08:49:05;2.60;;;2.50;;
15938;SDS011;8068;51.322;9.450;2023-04-24T08:51:36;2.63;;;2.43;;
15938;SDS011;8068;51.322;9.450;2023-04-24T08:54:07;3.73;;;2.30;;
15938;SDS011;8068;51.322;9.450;2023-04-24T08:56:39;2.20;;;2.10;;
15938;SDS011;8068;51.322;9.450;2023-04-24T08:59:10;3.47;;;2.23;;
15938;SDS011;8068;51.322;9.450;2023-04-24T09:01:41;2.57;;;2.37;;
15938;SDS011;8068;51.322;9.450;2023-04-24T09:04:11;2.60;;;2.40;;
15938;SDS011;8068;51.322;9.450;2023-04-24T09:06:41;2.50;;;2.40;;
15938;SDS011;8068;51.322;9.450;2023-04-24T09:09:11;2.23;;;2.13;;
15938;SDS011;8068;51.322;9.450;2023-04-24T09:11:42;2.43;;;2.20;;
15938;SDS011;8068;51.322;9.450;2023-04-24T09:14:12;3.13;;;2.50;;
15938;SDS011;8068;51.322;9.450;2023-04-24T09:16:42;2.57;;;2.00;;
15938;SDS011;8068;51.322;9.450;2023-04-24T09:19:15;2.50;;;2.37;;
15938;SDS011;8068;51.322;9.450;2023-04-24T09:21:41;2.90;;;2.70;;
15938;SDS011;8068;51.322;9.450;2023-04-24T09:24:18;2.60;;;2.50;;
15938;SDS011;8068;51.322;9.450;2023-04-24T09:26:48;2.30;;;2.10;;
15938;SDS011;8068;51.322;9.450;2023-04-24T09:29:15;2.10;;;2.00;;
15938;SDS011;8068;51.322;9.450;2023-04-24T09:31:43;2.23;;;2.03;;
15938;SDS011;8068;51.322;9.450;2023-04-24T09:34:09;2.30;;;2.00;;
15938;SDS011;8068;51.322;9.450;2023-04-24T09:36:39;3.60;;;2.00;;
15938;SDS011;8068;51.322;9.450;2023-04-24T09:39:08;2.00;;;1.90;;
15938;SDS011;8068;51.322;9.450;2023-04-24T09:41:43;12.70;;;3.00;;
15938;SDS011;8068;51.322;9.450;2023-04-24T09:44:13;3.87;;;2.37;;
15938;SDS011;8068;51.322;9.450;2023-04-24T09:46:45;1.70;;;1.60;;
15938;SDS011;8068;51.322;9.450;2023-04-24T09:49:16;3.87;;;2.07;;
15938;SDS011;8068;51.322;9.450;2023-04-24T09:51:46;3.87;;;2.30;;
15938;SDS011;8068;51.322;9.450;2023-04-24T09:54:16;1.87;;;1.77;;
15938;SDS011;8068;51.322;9.450;2023-04-24T09:56:44;2.00;;;1.90;;
15938;SDS011;8068;51.322;9.450;2023-04-24T09:59:12;1.50;;;1.40;;
15938;SDS011;8068;51.322;9.450;2023-04-24T10:01:42;1.10;;;1.00;;
15938;SDS011;8068;51.322;9.450;2023-04-24T10:04:16;1.40;;;1.30;;
15938;SDS011;8068;51.322;9.450;2023-04-24T10:06:47;2.23;;;1.40;;
15938;SDS011;8068;51.322;9.450;2023-04-24T10:09:15;3.70;;;1.10;;
15938;SDS011;8068;51.322;9.450;2023-04-24T10:11:42;2.73;;;1.50;;
15938;SDS011;8068;51.322;9.450;2023-04-24T10:14:12;3.63;;;1.73;;
15938;SDS011;8068;51.322;9.450;2023-04-24T10:16:42;2.10;;;1.90;;
15938;SDS011;8068;51.322;9.450;2023-04-24T10:19:09;4.80;;;1.20;;
15938;SDS011;8068;51.322;9.450;2023-04-24T10:21:36;81.27;;;10.00;;
15938;SDS011;8068;51.322;9.450;2023-04-24T10:24:08;2.70;;;2.03;;
15938;SDS011;8068;51.322;9.450;2023-04-24T10:26:35;1.40;;;1.30;;
15938;SDS011;8068;51.322;9.450;2023-04-24T10:29:03;11.17;;;4.33;;
15938;SDS011;8068;51.322;9.450;2023-04-24T10:31:31;4.37;;;3.77;;
15938;SDS011;8068;51.322;9.450;2023-04-24T10:33:58;5.23;;;4.70;;
15938;SDS011;8068;51.322;9.450;2023-04-24T10:36:26;2.00;;;1.90;;
15938;SDS011;8068;51.322;9.450;2023-04-24T10:38:54;9.40;;;3.57;;
15938;SDS011;8068;51.322;9.450;2023-04-24T10:41:20;3.40;;;3.10;;
15938;SDS011;8068;51.322;9.450;2023-04-24T10:44:03;7.30;;;5.30;;
15938;SDS011;8068;51.322;9.450;2023-04-24T10:46:33;1.77;;;1.67;;
15938;SDS011;8068;51.322;9.450;2023-04-24T10:49:00;8.30;;;2.00;;
15938;SDS011;8068;51.322;9.450;2023-04-24T10:51:48;2.57;;;2.37;;
15938;SDS011;8068;51.322;9.450;2023-04-24T11:02:41;1.20;;;1.00;;
15938;SDS011;8068;51.322;9.450;2023-04-24T11:05:16;1.10;;;0.80;;
15938;SDS011;8068;51.322;9.450;2023-04-24T11:10:37;1.10;;;0.80;;
15938;SDS011;8068;51.322;9.450;2023-04-24T11:13:04;1.50;;;0.70;;
15938;SDS011;8068;51.322;9.450;2023-04-24T11:15:30;1.10;;;0.93;;
15938;SDS011;8068;51.322;9.450;2023-04-24T11:17:56;1.20;;;1.10;;
15938;SDS011;8068;51.322;9.450;2023-04-24T11:20:23;1.00;;;0.47;;
15938;SDS011;8068;51.322;9.450;2023-04-24T11:22:54;1.83;;;0.60;;
15938;SDS011;8068;51.322;9.450;2023-04-24T11:25:21;1.03;;;0.43;;
15938;SDS011;8068;51.322;9.450;2023-04-24T11:27:51;1.47;;;0.70;;
15938;SDS011;8068;51.322;9.450;2023-04-24T11:30:29;0.90;;;0.40;;
15938;SDS011;8068;51.322;9.450;2023-04-24T11:33:04;1.20;;;0.70;;
15938;SDS011;8068;51.322;9.450;2023-04-24T11:35:34;1.50;;;0.70;;
15938;SDS011;8068;51.322;9.450;2023-04-24T11:38:03;2.37;;;1.30;;
15938;SDS011;8068;51.322;9.450;2023-04-24T11:40:49;1.50;;;0.90;;
15938;SDS011;8068;51.322;9.450;2023-04-24T11:43:17;1.80;;;1.27;;
15938;SDS011;8068;51.322;9.450;2023-04-24T11:45:48;1.40;;;0.87;;
15938;SDS011;8068;51.322;9.450;2023-04-24T11:48:18;1.00;;;0.50;;
15938;SDS011;8068;51.322;9.450;2023-04-24T11:50:48;2.20;;;0.70;;
15938;SDS011;8068;51.322;9.450;2023-04-24T11:53:15;1.47;;;0.83;;
15938;SDS011;8068;51.322;9.450;2023-04-24T11:55:45;0.90;;;0.40;;
15938;SDS011;8068;51.322;9.450;2023-04-24T11:58:11;1.67;;;0.50;;
15938;SDS011;8068;51.322;9.450;2023-04-24T12:00:38;3.00;;;0.83;;
15938;SDS011;8068;51.322;9.450;2023-04-24T12:03:07;2.87;;;1.70;;
15938;SDS011;8068;51.322;9.450;2023-04-24T12:05:35;1.90;;;0.47;;
15938;SDS011;8068;51.322;9.450;2023-04-24T12:08:02;3.20;;;1.03;;
15938;SDS011;8068;51.322;9.450;2023-04-24T12:10:29;2.33;;;0.40;;
15938;SDS011;8068;51.322;9.450;2023-04-24T12:12:57;1.37;;;0.50;;
15938;SDS011;8068;51.322;9.450;2023-04-24T12:15:24;2.37;;;0.70;;
15938;SDS011;8068;51.322;9.450;2023-04-24T12:17:51;1.43;;;1.00;;
15938;SDS011;8068;51.322;9.450;2023-04-24T12:20:23;2.00;;;1.83;;
15938;SDS011;8068;51.322;9.450;2023-04-24T12:22:55;1.20;;;0.70;;
15938;SDS011;8068;51.322;9.450;2023-04-24T12:25:27;0.90;;;0.30;;
15938;SDS011;8068;51.322;9.450;2023-04-24T12:27:55;2.70;;;0.50;;
15938;SDS011;8068;51.322;9.450;2023-04-24T12:30:47;1.10;;;0.40;;
15938;SDS011;8068;51.322;9.450;2023-04-24T12:33:17;0.90;;;0.33;;
15938;SDS011;8068;51.322;9.450;2023-04-24T12:35:51;8.10;;;0.80;;
15938;SDS011;8068;51.322;9.450;2023-04-24T12:38:21;4.80;;;0.50;;
15938;SDS011;8068;51.322;9.450;2023-04-24T12:41:00;1.10;;;0.30;;
15938;SDS011;8068;51.322;9.450;2023-04-24T12:43:28;0.90;;;0.30;;
15938;SDS011;8068;51.322;9.450;2023-04-24T12:45:54;0.90;;;0.30;;
15938;SDS011;8068;51.322;9.450;2023-04-24T12:48:20;0.90;;;0.30;;
15938;SDS011;8068;51.322;9.450;2023-04-24T12:50:48;0.80;;;0.30;;
15938;SDS011;8068;51.322;9.450;2023-04-24T12:53:14;0.80;;;0.30;;
15938;SDS011;8068;51.322;9.450;2023-04-24T12:55:41;0.80;;;0.20;;
15938;SDS011;8068;51.322;9.450;2023-04-24T12:58:07;2.80;;;0.30;;
15938;SDS011;8068;51.322;9.450;2023-04-24T13:00:34;0.90;;;0.30;;
15938;SDS011;8068;51.322;9.450;2023-04-24T13:03:00;0.80;;;0.30;;
15938;SDS011;8068;51.322;9.450;2023-04-24T13:05:27;0.80;;;0.30;;
15938;SDS011;8068;51.322;9.450;2023-04-24T13:07:53;0.80;;;0.30;;
15938;SDS011;8068;51.322;9.450;2023-04-24T13:10:19;0.80;;;0.30;;
15938;SDS011;8068;51.322;9.450;2023-04-24T13:12:45;1.10;;;0.40;;
15938;SDS011;8068;51.322;9.450;2023-04-24T13:15:12;4.60;;;0.30;;
15938;SDS011;8068;51.322;9.450;2023-04-24T13:17:38;4.63;;;0.30;;
15938;SDS011;8068;51.322;9.450;2023-04-24T13:20:04;0.80;;;0.30;;
15938;SDS011;8068;51.322;9.450;2023-04-24T13:22:31;0.90;;;0.30;;
15938;SDS011;8068;51.322;9.450;2023-04-24T13:24:58;1.60;;;0.30;;
15938;SDS011;8068;51.322;9.450;2023-04-24T13:27:24;0.90;;;0.30;;
15938;SDS011;8068;51.322;9.450;2023-04-24T13:29:50;1.10;;;0.40;;
15938;SDS011;8068;51.322;9.450;2023-04-24T13:32:16;1.40;;;0.40;;
15938;SDS011;8068;51.322;9.450;2023-04-24T13:34:43;0.90;;;0.40;;
15938;SDS011;8068;51.322;9.450;2023-04-24T13:37:09;0.90;;;0.40;;
15938;SDS011;8068;51.322;9.450;2023-04-24T13:39:35;0.90;;;0.40;;
15938;SDS011;8068;51.322;9.450;2023-04-24T13:42:02;1.33;;;0.30;;
15938;SDS011;8068;51.322;9.450;2023-04-24T13:44:30;2.60;;;0.40;;
15938;SDS011;8068;51.322;9.450;2023-04-24T13:46:57;0.90;;;0.37;;
15938;SDS011;8068;51.322;9.450;2023-04-24T13:49:24;1.40;;;0.40;;
15938;SDS011;8068;51.322;9.450;2023-04-24T13:51:51;0.90;;;0.30;;
15938;SDS011;8068;51.322;9.450;2023-04-24T13:54:17;0.90;;;0.40;;
15938;SDS011;8068;51.322;9.450;2023-04-24T13:56:44;0.90;;;0.40;;
15938;SDS011;8068;51.322;9.450;2023-04-24T13:59:12;0.90;;;0.40;;
15938;SDS011;8068;51.322;9.450;2023-04-24T14:01:38;1.00;;;0.40;;
15938;SDS011;8068;51.322;9.450;2023-04-24T14:04:04;1.63;;;0.40;;
15938;SDS011;8068;51.322;9.450;2023-04-24T14:06:31;0.90;;;0.50;;
15938;SDS011;8068;51.322;9.450;2023-04-24T14:08:57;0.90;;;0.50;;
15938;SDS011;8068;51.322;9.450;2023-04-24T14:11:23;3.93;;;0.57;;
15938;SDS011;8068;51.322;9.450;2023-04-24T14:13:50;1.00;;;0.60;;
15938;SDS011;8068;51.322;9.450;2023-04-24T14:16:16;2.17;;;0.67;;
15938;SDS011;8068;51.322;9.450;2023-04-24T14:18:42;1.10;;;0.63;;
15938;SDS011;8068;51.322;9.450;2023-04-24T14:21:09;1.10;;;0.60;;
15938;SDS011;8068;51.322;9.450;2023-04-24T14:23:35;1.00;;;0.63;;
15938;SDS011;8068;51.322;9.450;2023-04-24T14:26:01;1.00;;;0.70;;
15938;SDS011;8068;51.322;9.450;2023-04-24T14:28:27;1.20;;;0.70;;
15938;SDS011;8068;51.322;9.450;2023-04-24T14:30:53;2.40;;;1.00;;
15938;SDS011;8068;51.322;9.450;2023-04-24T14:33:20;1.00;;;0.90;;
15938;SDS011;8068;51.322;9.450;2023-04-24T14:35:46;1.00;;;0.80;;
15938;SDS011;8068;51.322;9.450;2023-04-24T14:38:13;1.20;;;1.10;;
15938;SDS011;8068;51.322;9.450;2023-04-24T14:40:39;1.10;;;1.00;;
15938;SDS011;8068;51.322;9.450;2023-04-24T14:43:09;2.03;;;1.57;;
15938;SDS011;8068;51.322;9.450;2023-04-24T14:45:36;2.60;;;1.20;;
15938;SDS011;8068;51.322;9.450;2023-04-24T14:48:02;2.40;;;1.50;;
15938;SDS011;8068;51.322;9.450;2023-04-24T14:50:29;3.87;;;1.50;;
15938;SDS011;8068;51.322;9.450;2023-04-24T14:52:55;3.47;;;1.93;;
15938;SDS011;8068;51.322;9.450;2023-04-24T14:55:25;1.40;;;1.30;;
15938;SDS011;8068;51.322;9.450;2023-04-24T14:57:52;1.87;;;1.77;;
15938;SDS011;8068;51.322;9.450;2023-04-24T15:00:18;1.43;;;1.23;;
15938;SDS011;8068;51.322;9.450;2023-04-24T15:02:45;2.00;;;1.80;;
15938;SDS011;8068;51.322;9.450;2023-04-24T15:05:12;3.73;;;1.70;;
15938;SDS011;8068;51.322;9.450;2023-04-24T15:07:38;5.20;;;2.13;;
15938;SDS011;8068;51.322;9.450;2023-04-24T15:10:07;1.70;;;1.60;;
15938;SDS011;8068;51.322;9.450;2023-04-24T15:12:33;2.00;;;1.90;;
15938;SDS011;8068;51.322;9.450;2023-04-24T15:15:00;3.03;;;1.67;;
15938;SDS011;8068;51.322;9.450;2023-04-24T15:17:26;2.13;;;1.93;;
15938;SDS011;8068;51.322;9.450;2023-04-24T15:19:52;2.00;;;1.67;;
15938;SDS011;8068;51.322;9.450;2023-04-24T15:22:18;1.90;;;1.80;;
15938;SDS011;8068;51.322;9.450;2023-04-24T15:24:44;2.63;;;2.33;;
15938;SDS011;8068;51.322;9.450;2023-04-24T15:27:11;3.13;;;2.00;;
15938;SDS011;8068;51.322;9.450;2023-04-24T15:29:37;2.60;;;2.40;;